sensor_id;sensor_type;location;lat;lon;timestamp;pressure;altitude;pressure_sealevel;temperature;humidity
14966;BME280;7577;45.226;5.798;2023-04-05T00:01:56;99270.92;;;20.45;36.38
14966;BME280;7577;45.226;5.798;2023-04-05T00:04:28;99273.69;;;20.45;36.41
14966;BME280;7577;45.226;5.798;2023-04-05T00:07:01;99280.33;;;20.44;36.40
14966;BME280;7577;45.226;5.798;2023-04-05T00:09:33;99274.00;;;20.44;36.41
14966;BME280;7577;45.226;5.798;2023-04-05T00:12:06;99275.94;;;20.43;36.44
14966;BME280;7577;45.226;5.798;2023-04-05T00:14:37;99271.00;;;20.43;36.45
14966;BME280;7577;45.226;5.798;2023-04-05T00:19:44;99272.38;;;20.43;36.44
14966;BME280;7577;45.226;5.798;2023-04-05T00:22:16;99273.33;;;20.38;36.43
14966;BME280;7577;45.226;5.798;2023-04-05T00:24:48;99277.48;;;20.38;36.43
14966;BME280;7577;45.226;5.798;2023-04-05T00:27:18;99266.97;;;20.38;36.42
14966;BME280;7577;45.226;5.798;2023-04-05T00:29:49;99272.19;;;20.39;36.42
14966;BME280;7577;45.226;5.798;2023-04-05T00:34:56;99276.09;;;20.38;36.49
14966;BME280;7577;45.226;5.798;2023-04-05T00:37:27;99278.94;;;20.36;36.49
14966;BME280;7577;45.226;5.798;2023-04-05T00:42:34;99273.41;;;20.36;36.53
14966;BME280;7577;45.226;5.798;2023-04-05T00:47:45;99273.72;;;20.34;36.51
14966;BME280;7577;45.226;5.798;2023-04-05T00:50:16;99273.80;;;20.32;36.52
14966;BME280;7577;45.226;5.798;2023-04-05T00:52:47;99269.88;;;20.33;36.52
14966;BME280;7577;45.226;5.798;2023-04-05T00:55:19;99267.78;;;20.30;36.51
14966;BME280;7577;45.226;5.798;2023-04-05T00:57:50;99268.02;;;20.31;36.50
14966;BME280;7577;45.226;5.798;2023-04-05T01:00:20;99265.81;;;20.30;36.51
14966;BME280;7577;45.226;5.798;2023-04-05T01:05:37;99257.75;;;20.31;36.54
14966;BME280;7577;45.226;5.798;2023-04-05T01:08:13;99264.19;;;20.29;36.56
14966;BME280;7577;45.226;5.798;2023-04-05T01:10:47;99263.11;;;20.28;36.57
14966;BME280;7577;45.226;5.798;2023-04-05T01:13:17;99262.88;;;20.27;36.59
14966;BME280;7577;45.226;5.798;2023-04-05T01:15:47;99262.56;;;20.28;36.59
14966;BME280;7577;45.226;5.798;2023-04-05T01:18:18;99263.43;;;20.26;36.60
14966;BME280;7577;45.226;5.798;2023-04-05T01:20:53;99259.52;;;20.27;36.56
14966;BME280;7577;45.226;5.798;2023-04-05T01:26:48;99254.33;;;20.26;36.59
14966;BME280;7577;45.226;5.798;2023-04-05T01:29:35;99261.33;;;20.23;36.59
14966;BME280;7577;45.226;5.798;2023-04-05T01:34:50;99255.80;;;20.23;36.62
14966;BME280;7577;45.226;5.798;2023-04-05T01:37:25;99255.83;;;20.21;36.60
14966;BME280;7577;45.226;5.798;2023-04-05T01:39:55;99249.51;;;20.20;36.67
14966;BME280;7577;45.226;5.798;2023-04-05T01:42:26;99255.59;;;20.20;36.63
14966;BME280;7577;45.226;5.798;2023-04-05T01:47:38;99249.27;;;20.19;36.62
14966;BME280;7577;45.226;5.798;2023-04-05T01:50:09;99256.73;;;20.19;36.56
14966;BME280;7577;45.226;5.798;2023-04-05T01:55:20;99254.21;;;20.20;36.56
14966;BME280;7577;45.226;5.798;2023-04-05T02:00:28;99255.35;;;20.19;36.50
14966;BME280;7577;45.226;5.798;2023-04-05T02:02:58;99254.59;;;20.16;36.53
14966;BME280;7577;45.226;5.798;2023-04-05T02:05:29;99266.81;;;20.15;36.54
14966;BME280;7577;45.226;5.798;2023-04-05T02:07:59;99263.24;;;20.14;36.50
14966;BME280;7577;45.226;5.798;2023-04-05T02:10:29;99259.66;;;20.14;36.50
14966;BME280;7577;45.226;5.798;2023-04-05T02:12:59;99262.42;;;20.14;36.54
14966;BME280;7577;45.226;5.798;2023-04-05T02:15:29;99267.13;;;20.13;36.53
14966;BME280;7577;45.226;5.798;2023-04-05T02:18:02;99259.66;;;20.14;36.48
14966;BME280;7577;45.226;5.798;2023-04-05T02:23:13;99262.73;;;20.12;36.56
14966;BME280;7577;45.226;5.798;2023-04-05T02:28:20;99259.41;;;20.13;36.47
14966;BME280;7577;45.226;5.798;2023-04-05T02:30:50;99267.78;;;20.10;36.49
14966;BME280;7577;45.226;5.798;2023-04-05T02:35:58;99259.97;;;20.12;36.51
14966;BME280;7577;45.226;5.798;2023-04-05T02:38:28;99271.41;;;20.08;36.48
14966;BME280;7577;45.226;5.798;2023-04-05T02:40:59;99265.88;;;20.08;36.49
14966;BME280;7577;45.226;5.798;2023-04-05T02:43:29;99266.44;;;20.08;36.41
14966;BME280;7577;45.226;5.798;2023-04-05T02:46:01;99270.90;;;20.06;36.44
14966;BME280;7577;45.226;5.798;2023-04-05T02:48:32;99265.09;;;20.05;36.49
14966;BME280;7577;45.226;5.798;2023-04-05T02:51:04;99277.54;;;20.05;36.47
14966;BME280;7577;45.226;5.798;2023-04-05T02:53:34;99280.06;;;20.04;36.47
14966;BME280;7577;45.226;5.798;2023-04-05T02:58:43;99263.71;;;20.05;36.46
14966;BME280;7577;45.226;5.798;2023-04-05T03:01:13;99267.14;;;20.02;36.48
14966;BME280;7577;45.226;5.798;2023-04-05T03:03:45;99269.31;;;20.03;36.50
14966;BME280;7577;45.226;5.798;2023-04-05T03:08:53;99264.85;;;20.04;36.44
14966;BME280;7577;45.226;5.798;2023-04-05T03:11:23;99270.77;;;20.00;36.46
14966;BME280;7577;45.226;5.798;2023-04-05T03:13:54;99268.91;;;19.98;36.50
14966;BME280;7577;45.226;5.798;2023-04-05T03:16:23;99277.20;;;19.98;36.46
14966;BME280;7577;45.226;5.798;2023-04-05T03:18:54;99275.23;;;19.99;36.46
14966;BME280;7577;45.226;5.798;2023-04-05T03:24:03;99288.74;;;20.00;36.48
14966;BME280;7577;45.226;5.798;2023-04-05T03:26:32;99290.44;;;19.99;36.46
14966;BME280;7577;45.226;5.798;2023-04-05T03:29:02;99293.03;;;19.95;36.40
14966;BME280;7577;45.226;5.798;2023-04-05T03:31:32;99298.25;;;19.97;36.43
14966;BME280;7577;45.226;5.798;2023-04-05T03:34:02;99293.86;;;19.96;36.41
14966;BME280;7577;45.226;5.798;2023-04-05T03:36:33;99300.53;;;19.95;36.45
14966;BME280;7577;45.226;5.798;2023-04-05T03:39:11;99300.26;;;19.94;36.43
14966;BME280;7577;45.226;5.798;2023-04-05T03:41:41;99301.91;;;19.95;36.42
14966;BME280;7577;45.226;5.798;2023-04-05T03:46:50;99302.71;;;19.95;36.46
14966;BME280;7577;45.226;5.798;2023-04-05T03:49:20;99307.48;;;19.92;36.43
14966;BME280;7577;45.226;5.798;2023-04-05T03:54:30;99301.16;;;19.92;36.41
14966;BME280;7577;45.226;5.798;2023-04-05T03:59:38;99300.02;;;19.93;36.39
14966;BME280;7577;45.226;5.798;2023-04-05T04:02:08;99308.37;;;19.90;36.45
14966;BME280;7577;45.226;5.798;2023-04-05T04:04:38;99308.93;;;19.90;36.43
14966;BME280;7577;45.226;5.798;2023-04-05T04:09:46;99307.23;;;19.91;36.44
14966;BME280;7577;45.226;5.798;2023-04-05T04:12:16;99305.38;;;19.89;36.39
14966;BME280;7577;45.226;5.798;2023-04-05T04:14:46;99306.44;;;19.91;36.41
14966;BME280;7577;45.226;5.798;2023-04-05T04:20:07;99304.72;;;19.92;36.46
14966;BME280;7577;45.226;5.798;2023-04-05T04:22:39;99308.06;;;19.92;36.42
14966;BME280;7577;45.226;5.798;2023-04-05T04:27:48;99299.15;;;19.95;36.44
14966;BME280;7577;45.226;5.798;2023-04-05T04:30:19;99300.84;;;19.93;36.44
14966;BME280;7577;45.226;5.798;2023-04-05T04:32:50;99308.00;;;19.94;36.47
14966;BME280;7577;45.226;5.798;2023-04-05T04:35:22;99303.30;;;19.95;36.44
14966;BME280;7577;45.226;5.798;2023-04-05T04:37:54;99306.61;;;19.94;36.44
14966;BME280;7577;45.226;5.798;2023-04-05T04:40:28;99309.07;;;19.96;36.45
14966;BME280;7577;45.226;5.798;2023-04-05T04:43:00;99307.69;;;19.96;36.43
14966;BME280;7577;45.226;5.798;2023-04-05T04:45:31;99310.45;;;19.96;36.46
14966;BME280;7577;45.226;5.798;2023-04-05T04:48:02;99314.02;;;19.96;36.44
14966;BME280;7577;45.226;5.798;2023-04-05T04:50:33;99312.25;;;20.00;36.64
14966;BME280;7577;45.226;5.798;2023-04-05T04:53:04;99311.69;;;20.01;36.74
14966;BME280;7577;45.226;5.798;2023-04-05T04:55:35;99305.85;;;20.02;36.95
14966;BME280;7577;45.226;5.798;2023-04-05T04:58:05;99313.01;;;20.03;37.38
14966;BME280;7577;45.226;5.798;2023-04-05T05:00:38;99315.11;;;20.09;37.52
14966;BME280;7577;45.226;5.798;2023-04-05T05:03:09;99317.73;;;20.14;37.66
14966;BME280;7577;45.226;5.798;2023-04-05T05:05:43;99320.11;;;20.18;37.68
14966;BME280;7577;45.226;5.798;2023-04-05T05:08:14;99317.59;;;20.19;37.65
14966;BME280;7577;45.226;5.798;2023-04-05T05:13:22;99314.68;;;20.24;37.43
14966;BME280;7577;45.226;5.798;2023-04-05T05:15:53;99314.68;;;20.24;37.27
14966;BME280;7577;45.226;5.798;2023-04-05T05:18:23;99318.66;;;20.20;37.05
14966;BME280;7577;45.226;5.798;2023-04-05T05:20:55;99327.75;;;20.21;36.84
14966;BME280;7577;45.226;5.798;2023-04-05T05:23:25;99320.43;;;20.16;36.97
14966;BME280;7577;45.226;5.798;2023-04-05T05:25:58;99322.71;;;20.14;37.04
14966;BME280;7577;45.226;5.798;2023-04-05T05:28:29;99328.11;;;20.08;36.89
14966;BME280;7577;45.226;5.798;2023-04-05T05:30:59;99332.81;;;20.08;37.04
14966;BME280;7577;45.226;5.798;2023-04-05T05:33:29;99323.17;;;20.05;37.19
14966;BME280;7577;45.226;5.798;2023-04-05T05:38:37;99323.69;;;20.07;37.01
14966;BME280;7577;45.226;5.798;2023-04-05T05:41:07;99330.60;;;20.07;36.76
14966;BME280;7577;45.226;5.798;2023-04-05T05:43:37;99338.79;;;20.12;36.66
14966;BME280;7577;45.226;5.798;2023-04-05T05:48:44;99340.10;;;20.15;36.42
14966;BME280;7577;45.226;5.798;2023-04-05T05:51:15;99348.09;;;20.16;36.34
14966;BME280;7577;45.226;5.798;2023-04-05T05:56:23;99347.19;;;20.18;36.27
14966;BME280;7577;45.226;5.798;2023-04-05T06:01:31;99352.92;;;20.22;35.90
14966;BME280;7577;45.226;5.798;2023-04-05T06:06:41;99351.78;;;20.23;36.04
14966;BME280;7577;45.226;5.798;2023-04-05T06:09:11;99363.68;;;20.23;36.00
14966;BME280;7577;45.226;5.798;2023-04-05T06:11:41;99359.26;;;20.22;36.15
14966;BME280;7577;45.226;5.798;2023-04-05T06:16:49;99366.48;;;20.32;35.75
14966;BME280;7577;45.226;5.798;2023-04-05T06:19:19;99367.76;;;20.26;35.80
14966;BME280;7577;45.226;5.798;2023-04-05T06:24:27;99369.17;;;20.34;35.83
14966;BME280;7577;45.226;5.798;2023-04-05T06:27:00;99378.30;;;20.35;35.75
14966;BME280;7577;45.226;5.798;2023-04-05T06:32:10;99381.48;;;20.39;35.72
14966;BME280;7577;45.226;5.798;2023-04-05T06:34:41;99387.33;;;20.38;35.64
14966;BME280;7577;45.226;5.798;2023-04-05T06:37:30;99388.98;;;20.39;35.62
14966;BME280;7577;45.226;5.798;2023-04-05T06:40:00;99396.94;;;20.40;35.62
14966;BME280;7577;45.226;5.798;2023-04-05T06:45:11;99393.23;;;20.45;35.58
14966;BME280;7577;45.226;5.798;2023-04-05T06:47:41;99389.98;;;20.43;35.54
14966;BME280;7577;45.226;5.798;2023-04-05T06:50:11;99391.30;;;20.45;35.54
14966;BME280;7577;45.226;5.798;2023-04-05T06:52:41;99400.33;;;20.48;35.50
14966;BME280;7577;45.226;5.798;2023-04-05T06:55:12;99391.47;;;20.49;35.45
14966;BME280;7577;45.226;5.798;2023-04-05T06:57:42;99387.56;;;20.50;35.40
14966;BME280;7577;45.226;5.798;2023-04-05T07:00:14;99382.27;;;20.51;35.43
14966;BME280;7577;45.226;5.798;2023-04-05T07:02:45;99385.86;;;20.51;35.53
14966;BME280;7577;45.226;5.798;2023-04-05T07:05:15;99384.16;;;20.53;35.45
14966;BME280;7577;45.226;5.798;2023-04-05T07:07:45;99383.84;;;20.54;35.41
14966;BME280;7577;45.226;5.798;2023-04-05T07:10:16;99383.50;;;20.56;35.45
14966;BME280;7577;45.226;5.798;2023-04-05T07:12:46;99379.04;;;20.57;35.38
14966;BME280;7577;45.226;5.798;2023-04-05T07:15:17;99379.62;;;20.57;35.23
14966;BME280;7577;45.226;5.798;2023-04-05T07:17:47;99379.62;;;20.57;35.30
14966;BME280;7577;45.226;5.798;2023-04-05T07:20:17;99376.78;;;20.59;35.30
14966;BME280;7577;45.226;5.798;2023-04-05T07:25:26;99378.34;;;20.63;35.26
14966;BME280;7577;45.226;5.798;2023-04-05T07:30:34;99376.56;;;20.67;35.26
14966;BME280;7577;45.226;5.798;2023-04-05T07:33:04;99370.27;;;20.64;35.21
14966;BME280;7577;45.226;5.798;2023-04-05T07:35:35;99375.25;;;20.64;35.16
14966;BME280;7577;45.226;5.798;2023-04-05T07:38:05;99370.78;;;20.66;35.15
14966;BME280;7577;45.226;5.798;2023-04-05T07:40:35;99377.95;;;20.67;35.18
14966;BME280;7577;45.226;5.798;2023-04-05T07:43:05;99382.34;;;20.68;35.12
14966;BME280;7577;45.226;5.798;2023-04-05T07:45:35;99381.86;;;20.66;35.18
14966;BME280;7577;45.226;5.798;2023-04-05T07:48:05;99387.64;;;20.67;35.13
14966;BME280;7577;45.226;5.798;2023-04-05T07:53:13;99381.71;;;20.71;35.12
14966;BME280;7577;45.226;5.798;2023-04-05T07:55:43;99379.02;;;20.68;35.11
14966;BME280;7577;45.226;5.798;2023-04-05T07:58:14;99377.31;;;20.70;35.10
14966;BME280;7577;45.226;5.798;2023-04-05T08:00:44;99383.17;;;20.68;35.12
14966;BME280;7577;45.226;5.798;2023-04-05T08:03:14;99382.86;;;20.70;35.15
14966;BME280;7577;45.226;5.798;2023-04-05T08:05:45;99377.63;;;20.68;35.15
14966;BME280;7577;45.226;5.798;2023-04-05T08:08:15;99375.94;;;20.70;35.09
14966;BME280;7577;45.226;5.798;2023-04-05T08:10:45;99376.17;;;20.71;35.10
14966;BME280;7577;45.226;5.798;2023-04-05T08:13:15;99375.03;;;20.72;35.08
14966;BME280;7577;45.226;5.798;2023-04-05T08:18:23;99377.25;;;20.72;35.13
14966;BME280;7577;45.226;5.798;2023-04-05T08:20:54;99385.55;;;20.72;35.11
14966;BME280;7577;45.226;5.798;2023-04-05T08:23:25;99384.16;;;20.72;35.05
14966;BME280;7577;45.226;5.798;2023-04-05T08:28:33;99376.86;;;20.76;35.08
14966;BME280;7577;45.226;5.798;2023-04-05T08:33:41;99374.33;;;20.77;35.10
14966;BME280;7577;45.226;5.798;2023-04-05T08:36:11;99371.88;;;20.76;35.05
14966;BME280;7577;45.226;5.798;2023-04-05T08:38:42;99374.33;;;20.77;34.99
14966;BME280;7577;45.226;5.798;2023-04-05T08:41:17;99375.95;;;20.78;34.97
14966;BME280;7577;45.226;5.798;2023-04-05T08:46:34;99368.95;;;20.81;34.91
14966;BME280;7577;45.226;5.798;2023-04-05T08:49:05;99365.11;;;20.79;34.96
14966;BME280;7577;45.226;5.798;2023-04-05T08:51:37;99369.20;;;20.82;34.87
14966;BME280;7577;45.226;5.798;2023-04-05T08:54:08;99365.62;;;20.81;34.94
14966;BME280;7577;45.226;5.798;2023-04-05T08:56:39;99357.00;;;20.83;34.91
14966;BME280;7577;45.226;5.798;2023-04-05T08:59:11;99360.57;;;20.83;34.91
14966;BME280;7577;45.226;5.798;2023-04-05T09:01:43;99363.02;;;20.85;34.88
14966;BME280;7577;45.226;5.798;2023-04-05T09:04:17;99356.10;;;20.85;34.72
14966;BME280;7577;45.226;5.798;2023-04-05T09:06:49;99353.02;;;20.86;34.82
14966;BME280;7577;45.226;5.798;2023-04-05T09:09:20;99357.17;;;20.86;34.84
14966;BME280;7577;45.226;5.798;2023-04-05T09:11:51;99347.39;;;20.89;34.73
14966;BME280;7577;45.226;5.798;2023-04-05T09:14:22;99346.25;;;20.90;34.61
14966;BME280;7577;45.226;5.798;2023-04-05T09:16:52;99345.97;;;20.91;34.66
14966;BME280;7577;45.226;5.798;2023-04-05T09:19:24;99340.11;;;20.93;34.53
14966;BME280;7577;45.226;5.798;2023-04-05T09:22:02;99340.94;;;20.93;34.58
14966;BME280;7577;45.226;5.798;2023-04-05T09:24:33;99332.88;;;20.94;34.49
14966;BME280;7577;45.226;5.798;2023-04-05T09:27:05;99330.10;;;20.94;34.41
14966;BME280;7577;45.226;5.798;2023-04-05T09:29:38;99331.41;;;20.97;34.44
14966;BME280;7577;45.226;5.798;2023-04-05T09:32:09;99333.66;;;20.95;34.52
14966;BME280;7577;45.226;5.798;2023-04-05T09:34:40;99334.97;;;20.97;34.55
14966;BME280;7577;45.226;5.798;2023-04-05T09:37:15;99340.19;;;20.99;34.41
14966;BME280;7577;45.226;5.798;2023-04-05T09:39:47;99339.88;;;21.00;34.29
14966;BME280;7577;45.226;5.798;2023-04-05T09:42:20;99334.84;;;21.02;34.30
14966;BME280;7577;45.226;5.798;2023-04-05T09:44:53;99334.50;;;21.04;34.22
14966;BME280;7577;45.226;5.798;2023-04-05T09:47:24;99328.95;;;21.04;34.19
14966;BME280;7577;45.226;5.798;2023-04-05T09:49:57;99325.39;;;21.03;34.21
14966;BME280;7577;45.226;5.798;2023-04-05T09:52:29;99322.30;;;21.05;34.23
14966;BME280;7577;45.226;5.798;2023-04-05T09:55:01;99315.05;;;21.06;34.12
14966;BME280;7577;45.226;5.798;2023-04-05T09:57:35;99310.31;;;21.07;34.14
14966;BME280;7577;45.226;5.798;2023-04-05T10:02:56;99306.08;;;21.09;33.99
14966;BME280;7577;45.226;5.798;2023-04-05T10:05:27;99306.39;;;21.08;34.00
14966;BME280;7577;45.226;5.798;2023-04-05T10:07:58;99305.52;;;21.10;33.99
14966;BME280;7577;45.226;5.798;2023-04-05T10:10:31;99303.55;;;21.10;33.95
14966;BME280;7577;45.226;5.798;2023-04-05T10:13:04;99305.76;;;21.11;34.00
14966;BME280;7577;45.226;5.798;2023-04-05T10:15:35;99306.00;;;21.12;34.01
14966;BME280;7577;45.226;5.798;2023-04-05T10:18:08;99298.19;;;21.14;33.90
14966;BME280;7577;45.226;5.798;2023-04-05T10:20:42;99293.20;;;21.13;33.79
14966;BME280;7577;45.226;5.798;2023-04-05T10:25:58;99286.20;;;21.16;33.91
14966;BME280;7577;45.226;5.798;2023-04-05T10:28:32;99282.13;;;21.13;33.94
14966;BME280;7577;45.226;5.798;2023-04-05T10:33:47;99275.95;;;21.16;33.97
14966;BME280;7577;45.226;5.798;2023-04-05T10:39:02;99282.05;;;21.16;33.93
14966;BME280;7577;45.226;5.798;2023-04-05T10:41:35;99282.13;;;21.13;34.02
14966;BME280;7577;45.226;5.798;2023-04-05T10:44:08;99280.42;;;21.15;33.98
14966;BME280;7577;45.226;5.798;2023-04-05T10:46:40;99276.03;;;21.14;34.06
14966;BME280;7577;45.226;5.798;2023-04-05T10:49:15;99273.81;;;21.13;33.74
14966;BME280;7577;45.226;5.798;2023-04-05T10:51:44;99267.30;;;21.09;33.22
14966;BME280;7577;45.226;5.798;2023-04-05T10:54:15;99266.91;;;21.05;32.93
14966;BME280;7577;45.226;5.798;2023-04-05T10:56:46;99257.29;;;21.02;32.74
14966;BME280;7577;45.226;5.798;2023-04-05T10:59:19;99257.61;;;21.01;32.85
14966;BME280;7577;45.226;5.798;2023-04-05T11:01:50;99261.84;;;20.98;32.20
14966;BME280;7577;45.226;5.798;2023-04-05T11:04:20;99261.93;;;20.96;32.09
14966;BME280;7577;45.226;5.798;2023-04-05T11:07:10;99263.13;;;20.92;31.87
14966;BME280;7577;45.226;5.798;2023-04-05T11:09:50;99253.75;;;20.91;31.66
14966;BME280;7577;45.226;5.798;2023-04-05T11:15:31;99246.48;;;20.84;31.03
14966;BME280;7577;45.226;5.798;2023-04-05T11:20:51;99238.50;;;20.82;31.32
14966;BME280;7577;45.226;5.798;2023-04-05T11:26:05;99234.66;;;20.81;30.94
14966;BME280;7577;45.226;5.798;2023-04-05T11:28:37;99228.97;;;20.77;30.72
14966;BME280;7577;45.226;5.798;2023-04-05T11:31:15;99225.69;;;20.75;30.47
14966;BME280;7577;45.226;5.798;2023-04-05T11:33:55;99219.36;;;20.75;30.49
14966;BME280;7577;45.226;5.798;2023-04-05T11:36:38;99212.20;;;20.74;30.58
14966;BME280;7577;45.226;5.798;2023-04-05T11:39:24;99219.44;;;20.72;30.40
14966;BME280;7577;45.226;5.798;2023-04-05T11:42:03;99215.84;;;20.72;30.46
14966;BME280;7577;45.226;5.798;2023-04-05T11:44:42;99222.77;;;20.72;30.45
14966;BME280;7577;45.226;5.798;2023-04-05T11:47:12;99211.30;;;20.67;29.96
14966;BME280;7577;45.226;5.798;2023-04-05T11:49:44;99199.39;;;20.67;29.80
14966;BME280;7577;45.226;5.798;2023-04-05T11:52:17;99209.09;;;20.67;30.00
14966;BME280;7577;45.226;5.798;2023-04-05T11:54:47;99214.63;;;20.67;29.94
14966;BME280;7577;45.226;5.798;2023-04-05T11:57:20;99202.72;;;20.66;29.87
14966;BME280;7577;45.226;5.798;2023-04-05T11:59:51;99201.02;;;20.68;29.98
14966;BME280;7577;45.226;5.798;2023-04-05T12:02:22;99202.99;;;20.67;29.82
14966;BME280;7577;45.226;5.798;2023-04-05T12:04:57;99201.34;;;20.66;29.74
14966;BME280;7577;45.226;5.798;2023-04-05T12:07:29;99192.00;;;20.65;29.19
14966;BME280;7577;45.226;5.798;2023-04-05T12:10:04;99198.66;;;20.64;29.43
14966;BME280;7577;45.226;5.798;2023-04-05T12:12:40;99192.56;;;20.64;29.49
14966;BME280;7577;45.226;5.798;2023-04-05T12:17:50;99183.27;;;20.69;29.13
14966;BME280;7577;45.226;5.798;2023-04-05T12:20:23;99180.10;;;20.64;29.25
14966;BME280;7577;45.226;5.798;2023-04-05T12:22:54;99186.94;;;20.67;29.29
14966;BME280;7577;45.226;5.798;2023-04-05T12:25:26;99177.57;;;20.65;29.17
14966;BME280;7577;45.226;5.798;2023-04-05T12:27:57;99177.48;;;20.68;29.28
14966;BME280;7577;45.226;5.798;2023-04-05T12:33:09;99188.16;;;20.72;29.19
14966;BME280;7577;45.226;5.798;2023-04-05T12:38:17;99182.86;;;20.73;29.05
14966;BME280;7577;45.226;5.798;2023-04-05T12:43:24;99171.70;;;20.75;29.15
14966;BME280;7577;45.226;5.798;2023-04-05T12:48:35;99181.34;;;20.78;29.33
14966;BME280;7577;45.226;5.798;2023-04-05T12:51:13;99192.42;;;20.78;29.32
14966;BME280;7577;45.226;5.798;2023-04-05T12:53:47;99188.74;;;20.80;29.16
14966;BME280;7577;45.226;5.798;2023-04-05T12:56:18;99187.03;;;20.81;29.09
14966;BME280;7577;45.226;5.798;2023-04-05T12:58:49;99170.42;;;20.81;29.23
14966;BME280;7577;45.226;5.798;2023-04-05T13:01:19;99191.42;;;20.82;29.24
14966;BME280;7577;45.226;5.798;2023-04-05T13:03:49;99177.50;;;20.85;29.00
14966;BME280;7577;45.226;5.798;2023-04-05T13:06:20;99176.03;;;20.87;29.32
14966;BME280;7577;45.226;5.798;2023-04-05T13:08:50;99171.80;;;20.90;29.33
14966;BME280;7577;45.226;5.798;2023-04-05T13:11:21;99178.66;;;20.92;29.31
14966;BME280;7577;45.226;5.798;2023-04-05T13:13:51;99167.03;;;20.93;29.31
14966;BME280;7577;45.226;5.798;2023-04-05T13:16:22;99178.02;;;20.95;29.29
14966;BME280;7577;45.226;5.798;2023-04-05T13:18:52;99166.53;;;20.99;29.23
14966;BME280;7577;45.226;5.798;2023-04-05T13:24:00;99158.61;;;21.04;29.18
14966;BME280;7577;45.226;5.798;2023-04-05T13:26:30;99155.84;;;21.04;28.96
14966;BME280;7577;45.226;5.798;2023-04-05T13:31:38;99157.23;;;21.12;29.04
14966;BME280;7577;45.226;5.798;2023-04-05T13:34:09;99153.81;;;21.15;29.19
14966;BME280;7577;45.226;5.798;2023-04-05T13:36:39;99138.13;;;21.19;29.18
14966;BME280;7577;45.226;5.798;2023-04-05T13:39:09;99140.99;;;21.25;29.19
14966;BME280;7577;45.226;5.798;2023-04-05T13:41:39;99154.58;;;21.33;29.21
14966;BME280;7577;45.226;5.798;2023-04-05T13:44:09;99146.31;;;21.39;29.24
14966;BME280;7577;45.226;5.798;2023-04-05T13:46:40;99140.03;;;21.44;29.33
14966;BME280;7577;45.226;5.798;2023-04-05T13:49:09;99140.12;;;21.50;29.31
14966;BME280;7577;45.226;5.798;2023-04-05T13:51:39;99139.11;;;21.55;29.34
14966;BME280;7577;45.226;5.798;2023-04-05T13:56:48;99145.57;;;21.67;29.36
14966;BME280;7577;45.226;5.798;2023-04-05T13:59:17;99135.54;;;21.69;29.34
14966;BME280;7577;45.226;5.798;2023-04-05T14:01:48;99141.75;;;21.74;29.36
14966;BME280;7577;45.226;5.798;2023-04-05T14:04:18;99130.23;;;21.78;29.37
14966;BME280;7577;45.226;5.798;2023-04-05T14:06:48;99122.88;;;21.82;29.36
14966;BME280;7577;45.226;5.798;2023-04-05T14:09:18;99146.03;;;21.86;29.31
14966;BME280;7577;45.226;5.798;2023-04-05T14:11:48;99136.69;;;21.91;29.33
14966;BME280;7577;45.226;5.798;2023-04-05T14:14:19;99133.27;;;21.94;29.38
14966;BME280;7577;45.226;5.798;2023-04-05T14:16:49;99132.01;;;21.97;29.33
14966;BME280;7577;45.226;5.798;2023-04-05T14:19:19;99121.08;;;22.01;29.28
14966;BME280;7577;45.226;5.798;2023-04-05T14:24:27;99129.83;;;22.12;29.38
14966;BME280;7577;45.226;5.798;2023-04-05T14:26:57;99123.69;;;22.12;29.31
14966;BME280;7577;45.226;5.798;2023-04-05T14:29:28;99128.81;;;22.16;29.28
14966;BME280;7577;45.226;5.798;2023-04-05T14:32:00;99103.41;;;22.20;29.27
14966;BME280;7577;45.226;5.798;2023-04-05T14:34:29;99112.69;;;22.24;29.25
14966;BME280;7577;45.226;5.798;2023-04-05T14:37:00;99120.58;;;22.28;29.24
14966;BME280;7577;45.226;5.798;2023-04-05T14:39:31;99115.16;;;22.32;29.21
14966;BME280;7577;45.226;5.798;2023-04-05T14:42:02;99106.63;;;22.37;29.23
14966;BME280;7577;45.226;5.798;2023-04-05T14:47:10;99103.50;;;22.47;29.19
14966;BME280;7577;45.226;5.798;2023-04-05T14:52:18;99098.09;;;22.56;29.16
14966;BME280;7577;45.226;5.798;2023-04-05T14:54:48;99105.53;;;22.58;29.10
14966;BME280;7577;45.226;5.798;2023-04-05T14:59:56;99093.77;;;22.67;29.08
14966;BME280;7577;45.226;5.798;2023-04-05T15:02:28;99089.27;;;22.69;29.15
14966;BME280;7577;45.226;5.798;2023-04-05T15:04:58;99081.29;;;22.73;29.01
14966;BME280;7577;45.226;5.798;2023-04-05T15:07:28;99083.62;;;22.77;29.08
14966;BME280;7577;45.226;5.798;2023-04-05T15:09:58;99088.40;;;22.83;29.02
14966;BME280;7577;45.226;5.798;2023-04-05T15:15:08;99076.97;;;22.96;28.93
14966;BME280;7577;45.226;5.798;2023-04-05T15:17:39;99084.41;;;22.98;28.94
14966;BME280;7577;45.226;5.798;2023-04-05T15:20:11;99077.80;;;23.03;28.87
14966;BME280;7577;45.226;5.798;2023-04-05T15:22:41;99081.75;;;23.08;28.81
14966;BME280;7577;45.226;5.798;2023-04-05T15:25:13;99081.30;;;23.12;28.80
14966;BME280;7577;45.226;5.798;2023-04-05T15:27:43;99080.85;;;23.16;28.75
14966;BME280;7577;45.226;5.798;2023-04-05T15:30:15;99085.42;;;23.20;28.79
14966;BME280;7577;45.226;5.798;2023-04-05T15:32:45;99079.41;;;23.24;28.66
14966;BME280;7577;45.226;5.798;2023-04-05T15:35:15;99070.03;;;23.29;28.64
14966;BME280;7577;45.226;5.798;2023-04-05T15:37:45;99082.08;;;23.33;28.62
14966;BME280;7577;45.226;5.798;2023-04-05T15:40:15;99078.84;;;23.37;28.61
14966;BME280;7577;45.226;5.798;2023-04-05T15:42:45;99082.34;;;23.40;28.62
14966;BME280;7577;45.226;5.798;2023-04-05T15:45:15;99077.38;;;23.45;28.56
14966;BME280;7577;45.226;5.798;2023-04-05T15:47:46;99078.27;;;23.49;28.55
14966;BME280;7577;45.226;5.798;2023-04-05T15:50:16;99075.30;;;23.54;28.51
14966;BME280;7577;45.226;5.798;2023-04-05T15:52:48;99082.02;;;23.59;28.50
14966;BME280;7577;45.226;5.798;2023-04-05T15:55:19;99067.99;;;23.62;28.44
14966;BME280;7577;45.226;5.798;2023-04-05T15:57:49;99078.66;;;23.66;28.39
14966;BME280;7577;45.226;5.798;2023-04-05T16:00:21;99070.98;;;23.69;28.41
14966;BME280;7577;45.226;5.798;2023-04-05T16:05:30;99066.26;;;23.81;28.41
14966;BME280;7577;45.226;5.798;2023-04-05T16:08:00;99072.87;;;23.83;28.30
14966;BME280;7577;45.226;5.798;2023-04-05T16:10:30;99075.76;;;23.86;28.22
14966;BME280;7577;45.226;5.798;2023-04-05T16:13:00;99077.85;;;23.89;28.24